createdAt,value
2018-11-29T00:00:40.753Z,1.80
2018-11-29T00:03:09.357Z,1.52
2018-11-29T00:05:35.921Z,1.70
2018-11-29T00:08:02.441Z,1.72
2018-11-29T00:10:28.948Z,1.77
2018-11-29T00:12:55.461Z,1.90
2018-11-29T00:15:22.022Z,1.47
2018-11-29T00:17:48.554Z,1.82
2018-11-29T00:20:17.572Z,1.70
2018-11-29T00:22:44.865Z,1.40
2018-11-29T00:25:12.065Z,1.77
2018-11-29T00:27:38.715Z,2.00
2018-11-29T00:30:11.705Z,1.65
2018-11-29T00:32:38.261Z,1.75
2018-11-29T00:35:06.316Z,1.70
2018-11-29T00:37:32.813Z,1.77
2018-11-29T00:39:59.322Z,1.65
2018-11-29T00:42:25.769Z,1.60
2018-11-29T00:44:52.317Z,1.62
2018-11-29T00:47:18.837Z,1.37
2018-11-29T00:49:45.376Z,1.60
2018-11-29T00:52:11.889Z,1.60
2018-11-29T00:54:38.348Z,1.50
2018-11-29T00:57:05.121Z,1.55
2018-11-29T00:59:31.640Z,1.50
2018-11-29T01:01:58.137Z,1.75
2018-11-29T01:04:24.597Z,1.60
2018-11-29T01:06:51.105Z,1.52
2018-11-29T01:09:17.559Z,1.40
2018-11-29T01:11:44.088Z,1.50
2018-11-29T01:14:10.620Z,1.90
2018-11-29T01:16:37.144Z,1.40
2018-11-29T01:19:04.077Z,1.60
2018-11-29T01:21:30.516Z,1.72
2018-11-29T01:23:56.981Z,1.30
2018-11-29T01:26:23.517Z,1.30
2018-11-29T01:28:50.056Z,1.40
2018-11-29T01:31:16.582Z,1.60
2018-11-29T01:33:43.113Z,1.40
2018-11-29T01:36:09.629Z,1.62
2018-11-29T01:38:36.200Z,1.77
2018-11-29T01:41:02.945Z,1.57
2018-11-29T01:43:29.469Z,1.70
2018-11-29T01:45:55.985Z,1.52
2018-11-29T01:48:22.513Z,1.50
2018-11-29T01:50:49.075Z,1.37
2018-11-29T01:53:15.565Z,1.62
2018-11-29T01:55:42.025Z,1.60
2018-11-29T01:58:08.545Z,1.65
2018-11-29T02:00:35.049Z,1.37
2018-11-29T02:03:01.509Z,1.42
2018-11-29T02:05:27.964Z,1.57
2018-11-29T02:07:54.510Z,1.62
2018-11-29T02:11:50.665Z,1.30
2018-11-29T02:14:17.183Z,1.42
2018-11-29T02:16:43.680Z,1.50
2018-11-29T02:19:10.125Z,1.30
2018-11-29T02:21:36.665Z,1.50
2018-11-29T02:24:03.538Z,1.40
2018-11-29T02:26:30.061Z,1.30
2018-11-29T02:28:56.572Z,1.30
2018-11-29T02:31:23.122Z,1.30
2018-11-29T02:33:49.655Z,1.30
2018-11-29T02:36:16.199Z,1.40
2018-11-29T02:38:42.709Z,1.52
2018-11-29T02:41:09.269Z,1.37
2018-11-29T02:43:35.773Z,1.32
2018-11-29T02:46:05.323Z,1.47
2018-11-29T02:48:31.930Z,1.35
2018-11-29T02:50:58.474Z,1.40
2018-11-29T02:53:24.983Z,1.40
2018-11-29T02:55:51.482Z,1.55
2018-11-29T02:58:17.966Z,1.40
2018-11-29T03:00:44.493Z,1.60
2018-11-29T03:03:11.053Z,1.27
2018-11-29T03:05:37.593Z,1.22
2018-11-29T03:08:04.263Z,1.20
2018-11-29T03:10:30.737Z,1.50
2018-11-29T03:12:57.285Z,1.37
2018-11-29T03:15:23.813Z,1.47
2018-11-29T03:17:50.362Z,1.40
2018-11-29T03:20:16.873Z,1.42
2018-11-29T03:22:43.341Z,1.30
2018-11-29T03:25:10.811Z,1.57
2018-11-29T03:27:37.323Z,1.35
2018-11-29T03:30:05.444Z,1.22
2018-11-29T03:32:31.918Z,1.20
2018-11-29T03:34:58.455Z,1.50
2018-11-29T03:37:24.985Z,1.25
2018-11-29T03:39:51.517Z,1.30
2018-11-29T03:42:18.072Z,1.30
2018-11-29T03:44:44.581Z,1.57
2018-11-29T03:47:11.102Z,1.30
2018-11-29T03:49:37.665Z,1.20
2018-11-29T03:52:04.409Z,1.20
2018-11-29T03:54:30.941Z,1.20
2018-11-29T03:56:57.461Z,1.30
2018-11-29T03:59:24.005Z,1.60
2018-11-29T04:01:50.529Z,1.40
2018-11-29T04:04:17.085Z,1.15
2018-11-29T04:06:43.605Z,1.30
2018-11-29T04:09:10.149Z,1.30
2018-11-29T04:11:36.682Z,1.37
2018-11-29T04:14:03.593Z,1.47
2018-11-29T04:16:30.061Z,1.30
2018-11-29T04:18:56.607Z,1.27
2018-11-29T04:21:23.116Z,1.17
2018-11-29T04:23:49.668Z,1.30
2018-11-29T04:26:16.181Z,1.40
2018-11-29T04:28:42.657Z,1.20
2018-11-29T04:31:09.150Z,1.30
2018-11-29T04:33:35.612Z,1.45
2018-11-29T04:36:02.121Z,1.57
2018-11-29T04:38:28.649Z,1.45
2018-11-29T04:40:55.117Z,1.30
2018-11-29T04:43:21.622Z,1.60
2018-11-29T04:45:59.969Z,1.30
2018-11-29T04:48:26.465Z,1.40
2018-11-29T04:50:52.957Z,1.22
2018-11-29T04:53:19.429Z,1.40
2018-11-29T04:55:45.897Z,1.07
2018-11-29T04:58:12.403Z,1.40
2018-11-29T05:00:38.961Z,1.20
2018-11-29T05:03:05.501Z,1.50
2018-11-29T05:05:32.029Z,1.30
2018-11-29T05:07:58.555Z,1.37
2018-11-29T05:10:25.093Z,1.60
2018-11-29T05:12:51.612Z,1.30
2018-11-29T05:15:18.167Z,1.40
2018-11-29T05:17:44.696Z,1.20
2018-11-29T05:20:11.253Z,1.30
2018-11-29T05:22:37.861Z,1.32
2018-11-29T05:25:05.457Z,1.67
2018-11-29T05:27:31.975Z,1.42
2018-11-29T05:29:58.572Z,1.40
2018-11-29T05:32:25.037Z,1.60
2018-11-29T05:34:51.553Z,1.60
2018-11-29T05:37:18.005Z,1.40
2018-11-29T05:39:44.521Z,1.60
2018-11-29T05:42:10.969Z,1.40
2018-11-29T05:44:37.491Z,1.45
2018-11-29T05:47:04.580Z,1.72
2018-11-29T05:49:31.077Z,1.37
2018-11-29T05:51:57.652Z,1.47
2018-11-29T05:54:24.133Z,1.20
2018-11-29T05:56:50.606Z,1.60
2018-11-29T05:59:17.117Z,1.50
2018-11-29T06:01:43.672Z,1.52
2018-11-29T06:04:10.181Z,1.27
2018-11-29T06:06:36.709Z,1.30
2018-11-29T06:09:06.905Z,1.37
2018-11-29T06:11:33.369Z,1.40
2018-11-29T06:13:59.916Z,1.50
2018-11-29T06:16:26.437Z,1.45
2018-11-29T06:18:52.901Z,1.45
2018-11-29T06:21:19.405Z,1.62
2018-11-29T06:23:45.863Z,1.40
2018-11-29T06:26:12.369Z,1.60
2018-11-29T06:29:42.356Z,1.40
2018-11-29T06:32:08.849Z,1.30
2018-11-29T06:34:35.405Z,1.52
2018-11-29T06:37:01.902Z,1.50
2018-11-29T06:39:28.457Z,1.62
2018-11-29T06:41:54.969Z,1.45
2018-11-29T06:44:21.521Z,1.45
2018-11-29T06:46:48.049Z,1.42
2018-11-29T06:49:14.593Z,1.67
2018-11-29T06:51:41.105Z,1.40
2018-11-29T06:54:07.573Z,1.35
2018-11-29T06:56:34.077Z,1.50
2018-11-29T06:59:00.609Z,1.70
2018-11-29T07:01:27.049Z,1.60
2018-11-29T07:03:53.572Z,1.75
2018-11-29T07:06:20.065Z,1.50
2018-11-29T07:08:46.537Z,1.62
2018-11-29T07:11:13.005Z,1.47
2018-11-29T07:13:39.509Z,1.45
2018-11-29T07:16:06.149Z,1.82
2018-11-29T07:18:32.597Z,1.55
2018-11-29T07:21:10.757Z,1.60
2018-11-29T07:23:37.220Z,1.90
2018-11-29T07:26:04.362Z,1.70
2018-11-29T07:28:30.805Z,1.47
2018-11-29T07:30:57.281Z,1.50
2018-11-29T07:33:23.775Z,1.57
2018-11-29T07:35:50.333Z,1.70
2018-11-29T07:38:16.833Z,1.22
2018-11-29T07:40:43.301Z,1.50
2018-11-29T07:43:09.813Z,1.70
2018-11-29T07:45:36.268Z,1.70
2018-11-29T07:48:02.788Z,1.50
2018-11-29T07:50:29.337Z,1.80
2018-11-29T07:52:55.850Z,1.50
2018-11-29T07:55:22.343Z,1.65
2018-11-29T07:57:49.905Z,1.70
2018-11-29T08:00:16.413Z,1.60
2018-11-29T08:02:43.085Z,1.60
2018-11-29T08:05:10.631Z,1.55
2018-11-29T08:07:37.520Z,1.62
2018-11-29T08:10:06.677Z,1.98
2018-11-29T08:12:33.177Z,1.80
2018-11-29T08:14:59.681Z,1.95
2018-11-29T08:17:26.129Z,1.70
2018-11-29T08:19:52.665Z,1.80
2018-11-29T08:22:19.724Z,1.60
2018-11-29T08:24:45.717Z,1.62
2018-11-29T08:27:12.177Z,1.62
2018-11-29T08:29:38.684Z,1.40
2018-11-29T08:32:05.291Z,1.60
2018-11-29T08:34:31.749Z,1.77
2018-11-29T08:36:58.245Z,1.90
2018-11-29T08:39:24.722Z,1.62
2018-11-29T08:41:51.189Z,1.62
2018-11-29T08:44:17.693Z,1.65
2018-11-29T08:46:44.134Z,1.52
2018-11-29T08:49:10.685Z,1.75
2018-11-29T08:51:37.202Z,1.50
2018-11-29T08:54:03.889Z,1.72
2018-11-29T08:56:30.373Z,2.10
2018-11-29T08:58:56.921Z,1.87
2018-11-29T09:01:23.429Z,1.80
2018-11-29T09:03:49.901Z,1.42
2018-11-29T09:06:16.411Z,1.70
2018-11-29T09:08:42.961Z,1.90
2018-11-29T09:11:09.484Z,1.87
2018-11-29T09:13:36.030Z,1.90
2018-11-29T09:16:02.561Z,1.87
2018-11-29T09:18:29.093Z,2.05
2018-11-29T09:20:55.617Z,1.75
2018-11-29T09:23:22.164Z,1.90
2018-11-29T09:25:48.686Z,1.65
2018-11-29T09:28:15.240Z,1.87
2018-11-29T09:30:41.749Z,1.72
2018-11-29T09:33:08.205Z,1.70
2018-11-29T09:35:34.721Z,1.80
2018-11-29T09:38:01.177Z,1.80
2018-11-29T09:40:27.701Z,1.60
2018-11-29T09:42:54.249Z,1.67
2018-11-29T09:45:21.540Z,1.80
2018-11-29T09:47:51.064Z,1.65
2018-11-29T09:50:17.677Z,1.75
2018-11-29T09:52:44.200Z,1.82
2018-11-29T09:55:11.653Z,1.60
2018-11-29T09:57:38.185Z,1.82
2018-11-29T10:00:09.881Z,1.35
2018-11-29T10:02:36.337Z,1.70
2018-11-29T10:05:03.149Z,2.00
2018-11-29T10:07:29.613Z,1.95
2018-11-29T10:09:56.169Z,1.80
2018-11-29T10:12:22.677Z,1.95
2018-11-29T10:14:49.137Z,1.57
2018-11-29T10:17:15.658Z,1.67
2018-11-29T10:19:42.212Z,1.85
2018-11-29T10:22:08.737Z,1.70
2018-11-29T10:24:35.274Z,1.72
2018-11-29T10:27:01.789Z,1.70
2018-11-29T10:29:28.253Z,1.75
2018-11-29T10:31:54.753Z,1.85
2018-11-29T10:34:21.221Z,1.80
2018-11-29T10:36:47.725Z,1.82
2018-11-29T10:39:14.288Z,1.70
2018-11-29T10:41:40.789Z,1.85
2018-11-29T10:44:07.253Z,1.75
2018-11-29T10:46:33.757Z,1.70
2018-11-29T10:49:00.324Z,1.80
2018-11-29T10:51:26.825Z,1.77
2018-11-29T10:53:53.353Z,1.65
2018-11-29T10:56:19.821Z,1.70
2018-11-29T10:58:46.329Z,1.70
2018-11-29T11:01:12.793Z,1.82
2018-11-29T11:03:39.301Z,1.80
2018-11-29T11:06:05.765Z,1.70
2018-11-29T11:08:32.270Z,1.67
2018-11-29T11:10:58.833Z,1.70
2018-11-29T11:13:25.346Z,1.67
2018-11-29T11:15:51.893Z,1.70
2018-11-29T11:18:18.673Z,1.82
2018-11-29T11:20:45.166Z,1.70
2018-11-29T11:23:11.677Z,2.00
2018-11-29T11:25:38.144Z,1.75
2018-11-29T11:28:06.337Z,1.70
2018-11-29T11:30:32.890Z,1.60
2018-11-29T11:32:59.353Z,1.80
2018-11-29T11:35:25.849Z,1.62
2018-11-29T11:37:52.321Z,1.60
2018-11-29T11:40:18.785Z,1.75
2018-11-29T11:42:45.778Z,1.80
2018-11-29T11:45:16.314Z,1.65
2018-11-29T11:47:42.947Z,1.70
2018-11-29T11:50:13.373Z,1.77
2018-11-29T11:52:39.858Z,1.60
2018-11-29T11:56:36.249Z,1.90
2018-11-29T11:59:02.748Z,1.92
2018-11-29T12:01:29.281Z,1.87
2018-11-29T12:03:55.788Z,1.62
2018-11-29T12:06:22.360Z,1.92
2018-11-29T12:08:48.861Z,1.60
2018-11-29T12:11:15.424Z,1.60
2018-11-29T12:13:41.925Z,1.87
2018-11-29T12:16:08.497Z,1.70
2018-11-29T12:18:34.989Z,1.50
2018-11-29T12:21:01.521Z,1.98
2018-11-29T12:23:27.968Z,1.92
2018-11-29T12:25:54.527Z,1.72
2018-11-29T12:28:21.049Z,1.98
2018-11-29T12:30:48.729Z,1.77
2018-11-29T12:33:15.253Z,1.42
2018-11-29T12:35:41.765Z,1.70
2018-11-29T12:38:08.310Z,1.82
2018-11-29T12:40:34.837Z,1.70
2018-11-29T12:43:01.405Z,1.72
2018-11-29T12:45:27.941Z,1.60
2018-11-29T12:47:54.468Z,1.90
2018-11-29T12:50:22.981Z,1.52
2018-11-29T12:52:49.496Z,1.80
2018-11-29T12:55:17.046Z,1.40
2018-11-29T12:57:43.690Z,1.67
2018-11-29T13:00:12.923Z,1.85
2018-11-29T13:02:48.156Z,1.70
2018-11-29T13:05:14.646Z,1.85
2018-11-29T13:07:43.348Z,1.57
2018-11-29T13:10:07.717Z,1.57
2018-11-29T13:12:34.237Z,1.65
2018-11-29T13:15:00.813Z,1.60
2018-11-29T13:17:27.285Z,1.75
2018-11-29T13:19:53.746Z,1.70
2018-11-29T13:22:20.257Z,1.62
2018-11-29T13:24:46.813Z,1.80
2018-11-29T13:27:13.328Z,1.70
2018-11-29T13:29:39.877Z,1.55
2018-11-29T13:32:06.449Z,1.72
2018-11-29T13:34:32.950Z,2.10
2018-11-29T13:36:59.470Z,1.70
2018-11-29T13:39:26.026Z,1.67
2018-11-29T13:41:52.577Z,1.37
2018-11-29T13:44:19.113Z,1.47
2018-11-29T13:46:45.609Z,1.67
2018-11-29T13:49:12.173Z,1.50
2018-11-29T13:51:38.673Z,1.62
2018-11-29T13:54:05.386Z,1.80
2018-11-29T13:56:31.868Z,1.92
2018-11-29T13:58:58.385Z,1.65
2018-11-29T14:01:25.051Z,1.70
2018-11-29T14:03:51.453Z,1.67
2018-11-29T14:06:17.917Z,1.60
2018-11-29T14:08:44.419Z,1.70
2018-11-29T14:11:10.881Z,1.67
2018-11-29T14:13:37.385Z,1.47
2018-11-29T14:16:04.088Z,1.70
2018-11-29T14:18:30.556Z,1.50
2018-11-29T14:20:57.019Z,1.80
2018-11-29T14:23:23.530Z,1.50
2018-11-29T14:25:50.077Z,1.60
2018-11-29T14:28:16.593Z,1.67
2018-11-29T14:30:43.088Z,1.67
2018-11-29T14:33:09.573Z,1.62
2018-11-29T14:35:36.129Z,1.70
2018-11-29T14:38:02.649Z,1.50
2018-11-29T14:40:32.304Z,1.70
2018-11-29T14:42:58.773Z,1.62
2018-11-29T14:45:25.680Z,1.52
2018-11-29T14:47:52.411Z,1.42
2018-11-29T14:50:24.180Z,1.55
2018-11-29T14:52:50.698Z,1.77
2018-11-29T14:55:17.198Z,1.70
2018-11-29T14:57:43.782Z,1.72
2018-11-29T15:00:11.129Z,1.40
2018-11-29T15:02:37.629Z,1.80
2018-11-29T15:06:33.901Z,1.50
2018-11-29T15:09:00.403Z,1.70
2018-11-29T15:11:29.299Z,1.80
2018-11-29T15:13:53.487Z,1.62
2018-11-29T15:16:19.981Z,1.60
2018-11-29T15:18:46.449Z,1.65
2018-11-29T15:21:12.949Z,1.60
2018-11-29T15:23:39.408Z,1.60
2018-11-29T15:26:05.999Z,1.70
2018-11-29T15:28:32.486Z,1.52
2018-11-29T15:30:59.026Z,1.75
2018-11-29T15:33:25.557Z,1.45
2018-11-29T15:35:52.065Z,1.50
2018-11-29T15:38:18.652Z,1.60
2018-11-29T15:40:45.130Z,1.60
2018-11-29T15:43:11.589Z,1.90
2018-11-29T15:45:38.161Z,1.50
2018-11-29T15:48:04.690Z,1.42
2018-11-29T15:50:31.201Z,1.60
2018-11-29T15:52:57.729Z,1.47
2018-11-29T15:55:24.241Z,1.67
2018-11-29T15:57:51.380Z,1.50
2018-11-29T16:00:24.149Z,1.45
2018-11-29T16:02:51.162Z,1.52
2018-11-29T16:05:17.687Z,1.70
2018-11-29T16:07:44.193Z,1.77
2018-11-29T16:10:11.841Z,2.02
2018-11-29T16:12:38.397Z,1.92
2018-11-29T16:15:13.501Z,2.52
2018-11-29T16:17:39.967Z,2.87
2018-11-29T16:20:09.532Z,2.80
2018-11-29T16:22:36.028Z,2.87
2018-11-29T16:25:04.315Z,3.35
2018-11-29T16:27:30.801Z,3.35
2018-11-29T16:29:58.702Z,3.40
2018-11-29T16:32:25.237Z,3.22
2018-11-29T16:34:51.760Z,3.62
2018-11-29T16:37:18.305Z,3.25
2018-11-29T16:39:44.809Z,3.20
2018-11-29T16:42:11.257Z,3.40
2018-11-29T16:44:37.785Z,3.40
2018-11-29T16:47:04.488Z,3.33
2018-11-29T16:49:30.952Z,3.20
2018-11-29T16:51:57.513Z,3.65
2018-11-29T16:54:24.021Z,3.45
2018-11-29T16:56:50.629Z,3.25
2018-11-29T16:59:17.122Z,3.72
2018-11-29T17:01:43.620Z,3.60
2018-11-29T17:04:10.080Z,3.70
2018-11-29T17:06:36.593Z,3.47
2018-11-29T17:09:06.921Z,3.60
2018-11-29T17:11:34.019Z,3.50
2018-11-29T17:14:00.517Z,3.72
2018-11-29T17:16:27.041Z,3.30
2018-11-29T17:18:53.585Z,3.35
2018-11-29T17:21:20.109Z,3.50
2018-11-29T17:23:46.708Z,3.55
2018-11-29T17:26:13.178Z,3.72
2018-11-29T17:28:39.730Z,3.42
2018-11-29T17:31:06.244Z,3.37
2018-11-29T17:33:32.729Z,3.40
2018-11-29T17:35:59.209Z,3.27
2018-11-29T17:38:25.660Z,3.55
2018-11-29T17:40:52.176Z,3.72
2018-11-29T17:43:18.627Z,3.40
2018-11-29T17:45:45.152Z,3.47
2018-11-29T17:48:11.948Z,4.22
2018-11-29T17:50:39.710Z,3.40
2018-11-29T17:53:06.636Z,3.12
2018-11-29T17:55:33.171Z,3.70
2018-11-29T17:58:00.121Z,3.42
2018-11-29T18:00:28.957Z,3.47
2018-11-29T18:02:55.416Z,3.70
2018-11-29T18:05:21.957Z,3.70
2018-11-29T18:07:48.485Z,3.40
2018-11-29T18:10:16.211Z,3.25
2018-11-29T18:12:43.012Z,3.40
2018-11-29T18:15:15.416Z,3.20
2018-11-29T18:17:41.883Z,3.55
2018-11-29T18:20:09.701Z,3.50
2018-11-29T18:22:36.173Z,3.20
2018-11-29T18:25:02.685Z,3.40
2018-11-29T18:27:29.146Z,3.22
2018-11-29T18:29:55.669Z,3.10
2018-11-29T18:32:22.146Z,3.40
2018-11-29T18:34:48.637Z,3.08
2018-11-29T18:37:15.253Z,3.42
2018-11-29T18:39:41.717Z,3.05
2018-11-29T18:42:08.277Z,3.20
2018-11-29T18:44:34.781Z,2.87
2018-11-29T18:47:01.245Z,3.17
2018-11-29T18:49:27.762Z,3.25
2018-11-29T18:51:54.318Z,2.87
2018-11-29T18:54:20.821Z,2.95
2018-11-29T18:56:47.277Z,3.20
2018-11-29T18:59:13.791Z,3.10
2018-11-29T19:01:40.356Z,2.90
2018-11-29T19:04:06.865Z,2.90
2018-11-29T19:06:33.509Z,2.90
2018-11-29T19:08:59.941Z,2.85
2018-11-29T19:11:26.473Z,2.80
2018-11-29T19:13:53.025Z,2.85
2018-11-29T19:16:19.545Z,2.72
2018-11-29T19:18:46.088Z,2.60
2018-11-29T19:21:12.606Z,2.62
2018-11-29T19:23:39.060Z,2.75
2018-11-29T19:26:05.907Z,2.33
2018-11-29T19:28:32.334Z,2.70
2018-11-29T19:30:58.854Z,2.72
2018-11-29T19:33:26.165Z,2.70
2018-11-29T19:35:53.395Z,2.55
2018-11-29T19:38:19.933Z,2.58
2018-11-29T19:40:46.421Z,2.25
2018-11-29T19:43:12.889Z,2.60
2018-11-29T19:45:39.405Z,2.67
2018-11-29T19:48:06.934Z,2.98
2018-11-29T19:50:33.551Z,2.75
2018-11-29T19:53:00.593Z,2.67
2018-11-29T19:55:28.665Z,2.80
2018-11-29T19:57:55.158Z,2.60
2018-11-29T20:00:21.741Z,2.55
2018-11-29T20:02:51.429Z,2.80
2018-11-29T20:05:18.037Z,2.70
2018-11-29T20:07:44.565Z,2.37
2018-11-29T20:10:14.945Z,2.80
2018-11-29T20:12:41.885Z,2.40
2018-11-29T20:15:12.071Z,2.60
2018-11-29T20:17:38.829Z,2.77
2018-11-29T20:20:07.121Z,2.87
2018-11-29T20:22:33.601Z,2.47
2018-11-29T20:25:00.153Z,2.85
2018-11-29T20:27:26.665Z,2.47
2018-11-29T20:29:53.223Z,2.22
2018-11-29T20:32:19.737Z,2.45
2018-11-29T20:34:46.309Z,2.25
2018-11-29T20:37:12.836Z,2.50
2018-11-29T20:39:39.346Z,2.52
2018-11-29T20:42:05.913Z,2.42
2018-11-29T20:44:32.410Z,2.40
2018-11-29T20:46:59.795Z,2.47
2018-11-29T20:49:26.249Z,2.35
2018-11-29T20:51:52.753Z,2.70
2018-11-29T20:54:19.261Z,2.50
2018-11-29T20:56:45.745Z,2.20
2018-11-29T20:59:12.233Z,2.70
2018-11-29T21:01:38.713Z,2.30
2018-11-29T21:04:05.230Z,2.42
2018-11-29T21:06:31.773Z,2.42
2018-11-29T21:08:58.281Z,2.40
2018-11-29T21:11:24.825Z,2.20
2018-11-29T21:13:51.345Z,2.50
2018-11-29T21:16:17.903Z,2.50
2018-11-29T21:18:44.421Z,2.27
2018-11-29T21:21:10.980Z,2.20
2018-11-29T21:23:37.487Z,2.50
2018-11-29T21:26:04.386Z,2.05
2018-11-29T21:28:30.853Z,2.50
2018-11-29T21:30:57.340Z,2.50
2018-11-29T21:33:23.821Z,2.45
2018-11-29T21:35:50.261Z,2.50
2018-11-29T21:38:19.005Z,2.42
2018-11-29T21:40:54.237Z,2.22
2018-11-29T21:43:20.750Z,2.20
2018-11-29T21:45:47.265Z,2.15
2018-11-29T21:48:13.804Z,2.52
2018-11-29T21:50:40.345Z,2.25
2018-11-29T21:53:06.893Z,2.10
2018-11-29T21:55:33.477Z,1.92
2018-11-29T21:57:59.982Z,2.10
2018-11-29T22:00:26.465Z,2.15
2018-11-29T22:02:56.233Z,2.50
2018-11-29T22:05:22.705Z,1.92
2018-11-29T22:07:49.153Z,2.30
2018-11-29T22:10:15.689Z,1.92
2018-11-29T22:12:42.232Z,2.20
2018-11-29T22:15:10.345Z,2.22
2018-11-29T22:18:43.212Z,2.40
2018-11-29T22:21:09.713Z,1.90
2018-11-29T22:23:37.437Z,2.05
2018-11-29T22:26:07.531Z,1.85
2018-11-29T22:28:34.029Z,2.40
2018-11-29T22:31:00.571Z,2.27
2018-11-29T22:33:27.105Z,2.45
2018-11-29T22:35:53.624Z,1.95
2018-11-29T22:38:20.081Z,2.08
2018-11-29T22:40:46.617Z,2.00
2018-11-29T22:43:13.157Z,2.00
2018-11-29T22:45:39.677Z,2.10
2018-11-29T22:48:06.224Z,2.20
2018-11-29T22:50:32.738Z,1.98
2018-11-29T22:52:59.305Z,1.90
2018-11-29T22:55:25.825Z,2.20
2018-11-29T22:57:52.381Z,2.15
2018-11-29T23:00:18.979Z,2.08
2018-11-29T23:02:46.504Z,2.00
2018-11-29T23:05:13.042Z,2.10
2018-11-29T23:07:39.524Z,2.12
2018-11-29T23:10:07.569Z,2.22
2018-11-29T23:12:34.013Z,2.17
2018-11-29T23:15:00.581Z,2.27
2018-11-29T23:17:27.073Z,2.00
2018-11-29T23:19:53.541Z,2.00
2018-11-29T23:22:20.037Z,1.90
2018-11-29T23:24:46.553Z,2.00
2018-11-29T23:27:13.009Z,1.90
2018-11-29T23:29:39.469Z,1.80
2018-11-29T23:32:06.063Z,2.15
2018-11-29T23:34:32.536Z,2.00
2018-11-29T23:36:59.049Z,2.02
2018-11-29T23:39:25.593Z,2.17
2018-11-29T23:41:52.173Z,1.80
2018-11-29T23:44:18.645Z,2.02
2018-11-29T23:46:45.113Z,1.90
2018-11-29T23:49:11.622Z,1.85
2018-11-29T23:51:38.173Z,2.02
2018-11-29T23:54:04.709Z,1.90
2018-11-29T23:56:31.282Z,1.87
2018-11-29T23:59:01.513Z,1.80
